createdAt,value
2022-11-07T00:01:49.170Z,95.66
2022-11-07T00:04:16.645Z,95.82
2022-11-07T00:06:43.697Z,95.78
2022-11-07T00:09:10.806Z,95.78
2022-11-07T00:11:37.891Z,95.80
2022-11-07T00:14:05.001Z,95.66
2022-11-07T00:16:32.847Z,95.99
2022-11-07T00:18:59.950Z,95.90
2022-11-07T00:21:27.138Z,95.68
2022-11-07T00:23:54.164Z,95.62
2022-11-07T00:26:21.418Z,95.54
2022-11-07T00:28:48.558Z,95.71
2022-11-07T00:31:16.496Z,95.51
2022-11-07T00:33:44.247Z,95.48
2022-11-07T00:36:27.339Z,95.84
2022-11-07T00:38:55.291Z,95.77
2022-11-07T00:41:23.422Z,95.77
2022-11-07T00:43:50.494Z,95.53
2022-11-07T00:46:19.444Z,96.19
2022-11-07T00:48:47.498Z,96.32
2022-11-07T00:51:19.119Z,96.30
2022-11-07T00:53:46.625Z,96.33
2022-11-07T00:56:16.146Z,96.46
2022-11-07T00:58:43.266Z,96.76
2022-11-07T01:01:11.396Z,96.76
2022-11-07T01:03:57.417Z,96.85
2022-11-07T01:06:24.973Z,96.82
2022-11-07T01:08:54.582Z,96.53
2022-11-07T01:11:21.950Z,97.17
2022-11-07T01:13:49.400Z,97.13
2022-11-07T01:16:16.615Z,97.06
2022-11-07T01:18:43.591Z,96.86
2022-11-07T01:21:15.268Z,97.24
2022-11-07T01:23:43.986Z,96.92
2022-11-07T01:26:13.223Z,97.14
2022-11-07T01:28:41.014Z,96.96
2022-11-07T01:31:12.285Z,96.95
2022-11-07T01:33:39.888Z,96.88
2022-11-07T01:36:10.245Z,96.93
2022-11-07T01:38:39.605Z,97.04
2022-11-07T01:41:23.166Z,97.30
2022-11-07T01:43:58.340Z,97.01
2022-11-07T01:46:29.831Z,97.12
2022-11-07T01:49:02.727Z,97.01
2022-11-07T01:51:34.049Z,97.03
2022-11-07T01:54:02.430Z,96.91
2022-11-07T01:56:33.427Z,96.68
2022-11-07T01:59:01.655Z,96.75
2022-11-07T02:01:29.089Z,96.32
2022-11-07T02:03:58.696Z,96.35
2022-11-07T02:06:45.395Z,96.48
2022-11-07T02:09:13.226Z,96.61
2022-11-07T02:11:40.964Z,96.48
2022-11-07T02:14:08.277Z,96.78
2022-11-07T02:16:36.595Z,96.46
2022-11-07T02:19:11.036Z,96.57
2022-11-07T02:21:59.414Z,96.93
2022-11-07T02:24:34.144Z,96.80
2022-11-07T02:27:06.889Z,96.88
2022-11-07T02:29:37.475Z,96.77
2022-11-07T02:32:09.866Z,96.81
2022-11-07T02:34:37.400Z,96.42
2022-11-07T02:37:13.415Z,96.71
2022-11-07T02:39:40.645Z,96.53
2022-11-07T02:42:07.945Z,96.61
2022-11-07T02:44:35.316Z,96.63
2022-11-07T02:47:02.683Z,96.36
2022-11-07T02:49:29.951Z,96.53
2022-11-07T02:51:57.017Z,96.66
2022-11-07T02:54:24.158Z,96.63
2022-11-07T02:56:51.296Z,96.78
2022-11-07T02:59:20.728Z,96.90
2022-11-07T03:01:50.177Z,96.91
2022-11-07T03:04:17.347Z,96.72
2022-11-07T03:06:44.336Z,96.90
2022-11-07T03:09:11.394Z,97.17
2022-11-07T03:11:38.401Z,97.32
2022-11-07T03:14:05.430Z,97.02
2022-11-07T03:16:32.514Z,97.41
2022-11-07T03:18:59.507Z,97.48
2022-11-07T03:21:26.558Z,97.80
2022-11-07T03:23:53.604Z,97.58
2022-11-07T03:26:21.301Z,97.84
2022-11-07T03:28:48.401Z,98.34
2022-11-07T03:31:15.448Z,98.34
2022-11-07T03:33:42.567Z,98.28
2022-11-07T03:36:10.115Z,98.14
2022-11-07T03:38:37.196Z,98.28
2022-11-07T03:41:04.391Z,98.17
2022-11-07T03:43:31.439Z,97.93
2022-11-07T03:45:58.575Z,98.09
2022-11-07T03:48:25.841Z,98.40
2022-11-07T03:50:52.830Z,98.51
2022-11-07T03:53:25.190Z,98.32
2022-11-07T03:55:54.975Z,98.43
2022-11-07T03:58:22.800Z,98.61
2022-11-07T04:00:50.115Z,98.70
2022-11-07T04:03:17.556Z,98.25
2022-11-07T04:05:45.279Z,98.55
2022-11-07T04:08:12.280Z,98.64
2022-11-07T04:10:39.377Z,99.04
2022-11-07T04:13:25.165Z,98.79
2022-11-07T04:16:16.422Z,98.40
2022-11-07T04:18:44.554Z,99.09
2022-11-07T04:21:11.615Z,99.37
2022-11-07T04:23:38.635Z,99.24
2022-11-07T04:26:24.689Z,98.90
2022-11-07T04:28:51.784Z,98.95
2022-11-07T04:31:18.847Z,98.78
2022-11-07T04:33:45.905Z,99.02
2022-11-07T04:36:12.999Z,98.69
2022-11-07T04:38:40.123Z,98.49
2022-11-07T04:41:07.218Z,98.67
2022-11-07T04:43:34.229Z,98.60
2022-11-07T04:46:01.286Z,98.41
2022-11-07T04:48:28.264Z,98.83
2022-11-07T04:50:55.355Z,98.95
2022-11-07T04:53:23.733Z,98.96
2022-11-07T04:55:50.763Z,98.90
2022-11-07T04:58:17.798Z,99.05
2022-11-07T05:00:44.949Z,99.00
2022-11-07T05:03:12.453Z,98.96
2022-11-07T05:05:39.986Z,98.79
2022-11-07T05:08:07.025Z,99.10
2022-11-07T05:10:34.930Z,98.73
2022-11-07T05:13:01.977Z,98.70
2022-11-07T05:15:29.038Z,98.87
2022-11-07T05:17:56.085Z,98.85
2022-11-07T05:20:29.081Z,99.11
2022-11-07T05:23:15.903Z,99.32
2022-11-07T05:25:47.449Z,99.34
2022-11-07T05:28:17.239Z,99.02
2022-11-07T05:30:45.624Z,99.76
2022-11-07T05:33:15.244Z,99.36
2022-11-07T05:35:43.130Z,99.32
2022-11-07T05:38:10.748Z,99.32
2022-11-07T05:40:39.427Z,99.57
2022-11-07T05:43:09.563Z,99.43
2022-11-07T05:45:41.345Z,99.14
2022-11-07T05:48:11.187Z,99.36
2022-11-07T05:50:38.914Z,99.54
2022-11-07T05:53:06.648Z,99.80
2022-11-07T05:55:34.144Z,99.55
2022-11-07T05:58:06.820Z,99.41
2022-11-07T06:00:34.197Z,99.71
2022-11-07T06:03:01.459Z,99.49
2022-11-07T06:05:29.291Z,99.33
2022-11-07T06:07:56.591Z,99.65
2022-11-07T06:10:24.610Z,99.35
2022-11-07T06:13:02.747Z,99.60
2022-11-07T06:15:31.827Z,99.72
2022-11-07T06:18:07.396Z,99.49
2022-11-07T06:20:35.366Z,99.66
2022-11-07T06:23:04.828Z,99.82
2022-11-07T06:25:32.277Z,99.75
2022-11-07T06:28:01.014Z,99.80
2022-11-07T06:30:28.225Z,99.73
2022-11-07T06:32:55.688Z,99.62
2022-11-07T06:35:23.277Z,99.55
2022-11-07T06:37:50.313Z,99.51
2022-11-07T06:40:17.556Z,99.63
2022-11-07T06:42:44.593Z,99.50
2022-11-07T06:45:11.825Z,99.36
2022-11-07T06:47:38.958Z,99.65
2022-11-07T06:50:06.506Z,99.21
2022-11-07T06:52:33.857Z,99.21
2022-11-07T06:55:01.085Z,99.05
2022-11-07T06:57:29.544Z,99.18
2022-11-07T06:59:56.627Z,99.35
2022-11-07T07:02:44.393Z,99.11
2022-11-07T07:05:10.779Z,99.09
2022-11-07T07:07:37.848Z,99.03
2022-11-07T07:10:05.410Z,99.27
2022-11-07T07:12:32.535Z,98.93
2022-11-07T07:14:59.655Z,98.83
2022-11-07T07:17:26.740Z,98.73
2022-11-07T07:19:53.920Z,98.71
2022-11-07T07:22:20.989Z,98.71
2022-11-07T07:24:51.120Z,98.47
2022-11-07T07:27:20.453Z,98.37
2022-11-07T07:29:48.010Z,98.18
2022-11-07T07:32:15.137Z,98.04
2022-11-07T07:34:42.298Z,97.87
2022-11-07T07:37:09.395Z,97.55
2022-11-07T07:39:36.547Z,96.95
2022-11-07T07:42:03.910Z,96.95
2022-11-07T07:44:32.090Z,96.90
2022-11-07T07:46:59.259Z,97.13
2022-11-07T07:49:26.323Z,96.48
2022-11-07T07:51:53.466Z,96.62
2022-11-07T07:54:20.737Z,96.24
2022-11-07T07:56:47.848Z,96.51
2022-11-07T07:59:14.919Z,96.23
2022-11-07T08:01:42.037Z,95.98
2022-11-07T08:04:09.288Z,95.86
2022-11-07T08:06:38.070Z,95.79
2022-11-07T08:09:06.043Z,94.97
2022-11-07T08:11:33.246Z,95.21
2022-11-07T08:14:01.726Z,94.87
2022-11-07T08:16:29.036Z,94.56
2022-11-07T08:18:56.125Z,94.49
2022-11-07T08:21:23.256Z,93.89
2022-11-07T08:23:53.636Z,93.16
2022-11-07T08:26:20.705Z,92.46
2022-11-07T08:28:47.615Z,92.37
2022-11-07T08:31:14.661Z,92.83
2022-11-07T08:33:41.594Z,92.15
2022-11-07T08:36:08.723Z,91.48
2022-11-07T08:38:36.390Z,91.15
2022-11-07T08:41:04.387Z,90.82
2022-11-07T08:43:31.326Z,88.84
2022-11-07T08:45:58.217Z,90.13
2022-11-07T08:48:25.143Z,88.72
2022-11-07T08:50:53.090Z,88.70
2022-11-07T08:53:20.483Z,88.03
2022-11-07T08:55:47.754Z,87.40
2022-11-07T08:58:15.354Z,87.51
2022-11-07T09:00:42.767Z,88.24
2022-11-07T09:05:58.908Z,88.42
2022-11-07T09:08:25.959Z,88.41
2022-11-07T09:10:52.960Z,87.78
2022-11-07T09:13:21.039Z,87.15
2022-11-07T09:15:51.344Z,87.29
2022-11-07T09:18:19.725Z,88.28
2022-11-07T09:20:46.765Z,87.97
2022-11-07T09:23:13.960Z,88.47
2022-11-07T09:25:41.189Z,88.17
2022-11-07T09:28:08.741Z,88.08
2022-11-07T09:30:35.619Z,88.46
2022-11-07T09:33:02.670Z,88.93
2022-11-07T09:35:29.517Z,87.74
2022-11-07T09:37:56.515Z,87.91
2022-11-07T09:40:24.161Z,87.78
2022-11-07T09:42:51.118Z,87.83
2022-11-07T09:45:18.066Z,87.74
2022-11-07T09:48:00.410Z,88.69
2022-11-07T09:50:34.283Z,88.26
2022-11-07T09:53:01.186Z,88.18
2022-11-07T09:55:31.563Z,88.06
2022-11-07T09:58:01.304Z,87.98
2022-11-07T10:00:30.711Z,88.32
2022-11-07T10:02:59.753Z,88.05
2022-11-07T10:05:45.382Z,87.44
2022-11-07T10:08:21.343Z,87.06
2022-11-07T10:11:20.615Z,86.65
2022-11-07T10:14:17.208Z,86.90
2022-11-07T10:16:56.285Z,87.10
2022-11-07T10:19:23.263Z,87.32
2022-11-07T10:21:50.156Z,87.24
2022-11-07T10:24:22.971Z,87.38
2022-11-07T10:26:50.007Z,87.13
2022-11-07T10:29:18.479Z,87.35
2022-11-07T10:32:03.869Z,87.49
2022-11-07T10:34:54.320Z,87.55
2022-11-07T10:37:22.249Z,88.11
2022-11-07T10:39:49.210Z,88.07
2022-11-07T10:42:18.816Z,87.85
2022-11-07T10:44:46.335Z,88.07
2022-11-07T10:47:20.445Z,88.30
2022-11-07T10:49:57.708Z,88.23
2022-11-07T10:52:25.159Z,88.20
2022-11-07T10:54:52.277Z,88.81
2022-11-07T10:57:20.629Z,88.46
2022-11-07T10:59:50.382Z,88.90
2022-11-07T11:02:24.541Z,88.71
2022-11-07T11:04:56.328Z,88.89
2022-11-07T11:07:41.611Z,88.76
2022-11-07T11:10:19.309Z,89.11
2022-11-07T11:12:47.403Z,88.70
2022-11-07T11:15:19.468Z,89.15
2022-11-07T11:17:46.628Z,89.06
2022-11-07T11:20:25.784Z,89.21
2022-11-07T11:22:53.397Z,89.22
2022-11-07T11:25:22.364Z,89.24
2022-11-07T11:27:51.640Z,89.27
2022-11-07T11:30:19.881Z,89.09
2022-11-07T11:32:52.214Z,89.41
2022-11-07T11:35:30.010Z,89.34
2022-11-07T11:38:03.919Z,89.54
2022-11-07T11:40:35.946Z,89.50
2022-11-07T11:43:12.035Z,89.27
2022-11-07T11:46:00.816Z,89.55
2022-11-07T11:48:44.049Z,89.05
2022-11-07T11:51:22.367Z,88.76
2022-11-07T11:53:49.418Z,89.15
2022-11-07T11:56:17.740Z,89.21
2022-11-07T11:59:08.003Z,89.72
2022-11-07T12:01:53.392Z,89.83
2022-11-07T12:04:35.668Z,89.40
2022-11-07T12:07:23.868Z,89.43
2022-11-07T12:10:14.230Z,89.47
2022-11-07T12:12:53.512Z,89.42
2022-11-07T12:15:20.421Z,88.92
2022-11-07T12:17:47.388Z,89.15
2022-11-07T12:20:22.190Z,89.46
2022-11-07T12:22:58.265Z,89.48
2022-11-07T12:25:40.347Z,89.12
2022-11-07T12:28:13.115Z,89.03
2022-11-07T12:30:56.446Z,88.87
2022-11-07T12:33:29.128Z,89.29
2022-11-07T12:35:59.135Z,89.39
2022-11-07T12:38:31.876Z,89.18
2022-11-07T12:41:17.712Z,88.83
2022-11-07T12:43:44.752Z,89.07
2022-11-07T12:46:14.351Z,88.81
2022-11-07T12:48:56.589Z,89.39
2022-11-07T12:51:42.085Z,89.30
2022-11-07T12:54:27.666Z,89.23
2022-11-07T12:56:56.521Z,89.35
2022-11-07T12:59:26.072Z,89.37
2022-11-07T13:02:00.298Z,89.16
2022-11-07T13:04:27.305Z,89.31
2022-11-07T13:07:03.217Z,89.71
2022-11-07T13:09:36.457Z,89.35
2022-11-07T13:12:05.498Z,89.33
2022-11-07T13:14:33.606Z,89.42
2022-11-07T13:17:24.389Z,89.60
2022-11-07T13:20:02.089Z,89.48
2022-11-07T13:22:36.779Z,89.32
2022-11-07T13:25:15.041Z,89.58
2022-11-07T13:27:55.533Z,89.70
2022-11-07T13:30:23.591Z,89.55
2022-11-07T13:32:51.607Z,89.72
2022-11-07T13:35:37.469Z,90.12
2022-11-07T13:38:20.992Z,89.72
2022-11-07T13:40:51.080Z,89.92
2022-11-07T13:43:41.096Z,89.65
2022-11-07T13:46:11.031Z,90.50
2022-11-07T13:48:40.776Z,90.47
2022-11-07T13:51:23.398Z,90.57
2022-11-07T13:54:02.316Z,90.70
2022-11-07T13:56:44.311Z,90.53
2022-11-07T13:59:17.853Z,90.50
2022-11-07T14:01:45.578Z,90.35
2022-11-07T14:04:16.915Z,90.61
2022-11-07T14:06:44.017Z,90.61
2022-11-07T14:09:14.462Z,90.46
2022-11-07T14:11:41.378Z,90.39
2022-11-07T14:14:08.830Z,90.94
2022-11-07T14:16:35.943Z,90.78
2022-11-07T14:19:06.732Z,91.17
2022-11-07T14:21:34.722Z,91.13
2022-11-07T14:24:01.938Z,90.99
2022-11-07T14:26:31.039Z,91.34
2022-11-07T14:29:00.887Z,91.04
2022-11-07T14:31:29.758Z,91.43
2022-11-07T14:33:58.827Z,91.60
2022-11-07T14:36:26.198Z,91.56
2022-11-07T14:39:10.001Z,91.86
2022-11-07T14:41:41.082Z,91.96
2022-11-07T14:44:12.916Z,91.88
2022-11-07T14:46:39.865Z,92.41
2022-11-07T14:49:07.076Z,92.74
2022-11-07T14:51:34.089Z,92.90
2022-11-07T14:54:04.159Z,92.34
2022-11-07T14:56:38.727Z,92.66
2022-11-07T14:59:10.557Z,92.22
2022-11-07T15:01:37.677Z,92.53
2022-11-07T15:04:25.415Z,92.82
2022-11-07T15:06:52.347Z,92.77
2022-11-07T15:09:30.265Z,93.35
2022-11-07T15:11:58.674Z,93.09
2022-11-07T15:14:30.355Z,93.32
2022-11-07T15:16:58.809Z,93.14
2022-11-07T15:19:25.939Z,93.66
2022-11-07T15:22:01.181Z,93.41
2022-11-07T15:24:41.755Z,93.78
2022-11-07T15:27:14.842Z,93.57
2022-11-07T15:29:49.815Z,93.61
2022-11-07T15:32:18.725Z,93.68
2022-11-07T15:35:03.765Z,93.56
2022-11-07T15:37:32.599Z,93.16
2022-11-07T15:39:59.533Z,93.61
2022-11-07T15:42:26.515Z,93.97
2022-11-07T15:44:53.474Z,93.90
2022-11-07T15:47:21.644Z,93.79
2022-11-07T15:49:48.839Z,93.98
2022-11-07T15:52:15.965Z,94.14
2022-11-07T15:54:42.868Z,93.81
2022-11-07T15:57:11.801Z,94.00
2022-11-07T15:59:38.893Z,94.28
2022-11-07T16:02:10.584Z,94.42
2022-11-07T16:04:39.819Z,94.72
2022-11-07T16:07:09.806Z,94.59
2022-11-07T16:09:36.711Z,94.35
2022-11-07T16:12:03.742Z,94.30
2022-11-07T16:14:43.378Z,94.55
2022-11-07T16:17:15.429Z,94.34
2022-11-07T16:19:42.375Z,94.59
2022-11-07T16:22:13.425Z,94.91
2022-11-07T16:24:40.408Z,94.36
2022-11-07T16:27:07.575Z,94.28
2022-11-07T16:29:34.552Z,94.56
2022-11-07T16:32:01.671Z,94.47
2022-11-07T16:34:28.557Z,94.84
2022-11-07T16:36:55.623Z,94.65
2022-11-07T16:39:23.180Z,94.85
2022-11-07T16:41:50.723Z,94.34
2022-11-07T16:44:24.672Z,94.44
2022-11-07T16:46:54.486Z,94.93
2022-11-07T16:49:32.700Z,94.82
2022-11-07T16:51:59.767Z,94.90
2022-11-07T16:54:26.737Z,94.79
2022-11-07T16:56:53.836Z,94.89
2022-11-07T16:59:22.599Z,94.52
2022-11-07T17:01:50.478Z,94.75
2022-11-07T17:04:17.625Z,94.76
2022-11-07T17:06:48.109Z,95.21
2022-11-07T17:09:24.885Z,95.18
2022-11-07T17:11:51.837Z,95.30
2022-11-07T17:14:18.840Z,94.85
2022-11-07T17:16:47.506Z,95.46
2022-11-07T17:19:15.658Z,95.48
2022-11-07T17:21:46.624Z,95.26
2022-11-07T17:24:13.963Z,95.01
2022-11-07T17:26:40.935Z,95.02
2022-11-07T17:29:11.892Z,95.01
2022-11-07T17:31:38.868Z,94.44
2022-11-07T17:34:05.987Z,94.81
2022-11-07T17:36:37.385Z,95.04
2022-11-07T17:39:11.647Z,94.98
2022-11-07T17:41:39.899Z,94.70
2022-11-07T17:44:07.010Z,94.63
2022-11-07T17:46:34.693Z,94.82
2022-11-07T17:49:03.027Z,94.42
2022-11-07T17:51:30.095Z,94.30
2022-11-07T17:53:58.025Z,94.41
2022-11-07T17:56:26.859Z,94.40
2022-11-07T17:58:55.170Z,94.58
2022-11-07T18:01:23.594Z,94.56
2022-11-07T18:03:51.458Z,94.73
2022-11-07T18:06:18.745Z,94.58
2022-11-07T18:08:52.269Z,94.33
2022-11-07T18:11:20.457Z,94.27
2022-11-07T18:13:50.068Z,94.54
2022-11-07T18:16:18.837Z,94.82
2022-11-07T18:18:45.822Z,94.89
2022-11-07T18:21:13.288Z,94.81
2022-11-07T18:23:40.808Z,94.82
2022-11-07T18:26:11.956Z,94.75
2022-11-07T18:28:40.151Z,95.22
2022-11-07T18:31:07.013Z,94.49
2022-11-07T18:33:34.033Z,94.73
2022-11-07T18:36:01.960Z,94.55
2022-11-07T18:38:29.219Z,94.30
2022-11-07T18:41:00.214Z,94.81
2022-11-07T18:43:27.218Z,94.50
2022-11-07T18:45:54.756Z,94.40
2022-11-07T18:48:22.112Z,94.22
2022-11-07T18:50:49.601Z,93.93
2022-11-07T18:53:17.195Z,93.85
2022-11-07T18:55:44.116Z,94.26
2022-11-07T18:58:11.094Z,94.08
2022-11-07T19:00:38.152Z,94.14
2022-11-07T19:03:05.106Z,93.86
2022-11-07T19:05:33.420Z,93.74
2022-11-07T19:08:02.034Z,93.67
2022-11-07T19:10:28.905Z,93.61
2022-11-07T19:12:55.796Z,93.48
2022-11-07T19:15:25.233Z,93.80
2022-11-07T19:17:52.146Z,93.50
2022-11-07T19:20:20.635Z,93.28
2022-11-07T19:22:47.588Z,93.61
2022-11-07T19:25:18.998Z,93.36
2022-11-07T19:27:47.368Z,93.10
2022-11-07T19:30:15.077Z,93.06
2022-11-07T19:32:42.339Z,93.06
2022-11-07T19:35:09.700Z,93.17
2022-11-07T19:37:36.702Z,93.03
2022-11-07T19:40:03.865Z,93.11
2022-11-07T19:42:30.882Z,93.12
2022-11-07T19:44:57.839Z,93.09
2022-11-07T19:47:24.783Z,93.02
2022-11-07T19:49:51.714Z,93.45
2022-11-07T19:52:18.655Z,93.53
2022-11-07T19:54:45.849Z,92.99
2022-11-07T19:57:12.795Z,93.39
2022-11-07T19:59:39.731Z,93.14
2022-11-07T20:02:31.676Z,92.99
2022-11-07T20:04:55.867Z,93.32
2022-11-07T20:07:22.870Z,93.31
2022-11-07T20:09:49.766Z,93.16
2022-11-07T20:12:16.739Z,93.07
2022-11-07T20:14:43.743Z,93.00
2022-11-07T20:17:10.668Z,93.03
2022-11-07T20:19:38.248Z,92.89
2022-11-07T20:22:05.206Z,93.30
2022-11-07T20:24:32.249Z,93.05
2022-11-07T20:26:59.199Z,93.17
2022-11-07T20:29:26.316Z,93.22
2022-11-07T20:31:53.525Z,93.30
2022-11-07T20:34:20.712Z,93.92
2022-11-07T20:36:49.246Z,93.33
2022-11-07T20:39:16.219Z,93.55
2022-11-07T20:41:43.926Z,93.33
2022-11-07T20:44:12.938Z,93.46
2022-11-07T20:46:41.936Z,93.42
2022-11-07T20:49:10.738Z,93.71
2022-11-07T20:51:37.782Z,93.30
2022-11-07T20:54:04.762Z,93.54
2022-11-07T20:56:32.134Z,93.81
2022-11-07T20:58:59.094Z,93.85
2022-11-07T21:01:27.618Z,93.83
2022-11-07T21:03:55.356Z,93.90
2022-11-07T21:06:22.358Z,93.53
2022-11-07T21:08:50.021Z,94.21
2022-11-07T21:11:17.122Z,94.01
2022-11-07T21:13:49.635Z,93.70
2022-11-07T21:16:19.910Z,94.10
2022-11-07T21:18:47.105Z,93.97
2022-11-07T21:21:16.715Z,93.96
2022-11-07T21:23:43.658Z,94.13
2022-11-07T21:26:13.266Z,94.03
2022-11-07T21:28:40.628Z,94.14
2022-11-07T21:31:09.576Z,94.20
2022-11-07T21:33:36.706Z,94.23
2022-11-07T21:36:07.736Z,94.20
2022-11-07T21:38:34.607Z,94.09
2022-11-07T21:41:04.505Z,93.97
2022-11-07T21:43:31.473Z,93.83
2022-11-07T21:46:18.851Z,94.18
2022-11-07T21:48:46.135Z,94.10
2022-11-07T21:51:13.015Z,94.09
2022-11-07T21:53:40.063Z,94.66
2022-11-07T21:56:07.710Z,94.32
2022-11-07T21:58:34.691Z,93.94
2022-11-07T22:01:05.636Z,93.90
2022-11-07T22:04:03.620Z,94.22
2022-11-07T22:06:21.076Z,94.34
2022-11-07T22:08:49.095Z,94.23
2022-11-07T22:11:16.383Z,94.41
2022-11-07T22:13:43.629Z,94.00
2022-11-07T22:16:14.928Z,94.58
2022-11-07T22:18:42.388Z,94.17
2022-11-07T22:21:10.661Z,94.66
2022-11-07T22:23:38.183Z,94.47
2022-11-07T22:26:06.096Z,94.32
2022-11-07T22:28:33.341Z,94.45
2022-11-07T22:31:05.305Z,94.41
2022-11-07T22:33:32.384Z,94.45
2022-11-07T22:36:00.117Z,94.22
2022-11-07T22:38:27.031Z,94.31
2022-11-07T22:40:53.921Z,94.46
2022-11-07T22:43:20.890Z,94.23
2022-11-07T22:45:47.796Z,94.42
2022-11-07T22:48:15.009Z,94.38
2022-11-07T22:50:43.436Z,94.31
2022-11-07T22:53:11.069Z,93.92
2022-11-07T22:55:38.837Z,94.55
2022-11-07T22:58:06.175Z,94.27
2022-11-07T23:00:33.685Z,94.24
2022-11-07T23:03:00.642Z,94.16
2022-11-07T23:05:27.627Z,94.19
2022-11-07T23:07:54.574Z,94.00
2022-11-07T23:10:21.510Z,94.03
2022-11-07T23:12:48.431Z,94.12
2022-11-07T23:15:15.385Z,94.32
2022-11-07T23:17:42.347Z,94.09
2022-11-07T23:20:10.440Z,94.17
2022-11-07T23:22:37.338Z,94.09
2022-11-07T23:25:04.377Z,94.23
2022-11-07T23:27:31.334Z,94.21
2022-11-07T23:29:58.288Z,93.93
2022-11-07T23:32:26.099Z,94.05
2022-11-07T23:34:55.585Z,94.21
2022-11-07T23:37:22.549Z,94.12
2022-11-07T23:39:49.482Z,94.20
2022-11-07T23:42:16.364Z,94.08
2022-11-07T23:45:01.868Z,93.90
2022-11-07T23:47:47.426Z,93.75
2022-11-07T23:50:32.877Z,93.93
2022-11-07T23:52:59.828Z,94.30
2022-11-07T23:55:41.960Z,93.92
2022-11-07T23:58:27.437Z,94.33
